Time,TemperatureF,DewpointF,PressureIn,WindDirection,WindDirectionDegrees,WindSpeedMPH,WindSpeedGustMPH,Humidity,HourlyPrecipIn,Conditions,Clouds,dailyrainin,SoftwareType,DateUTC
2013-06-07 00:02:00,72.6,71.4,29.74,SSE,157,3.0,10.0,96,0.08,,,0.83,Wunderground v.1.15,2013-06-07 04:02:00,
2013-06-07 00:04:00,72.6,71.4,29.74,SSE,152,3.0,10.0,96,0.08,,,0.83,Wunderground v.1.15,2013-06-07 04:04:00,
2013-06-07 00:06:00,72.6,71.4,29.74,East,82,3.0,10.0,96,0.14,,,0.84,Wunderground v.1.15,2013-06-07 04:06:00,
2013-06-07 00:08:00,72.6,71.4,29.74,SSE,160,4.0,10.0,96,0.14,,,0.84,Wunderground v.1.15,2013-06-07 04:08:00,
2013-06-07 00:14:00,72.6,71.4,29.73,SE,140,3.0,10.0,96,0.98,,,0.90,Wunderground v.1.15,2013-06-07 04:14:00,
2013-06-07 00:20:00,72.5,71.3,29.73,SSE,148,2.0,2.0,96,0.11,,,0.91,Wunderground v.1.15,2013-06-07 04:20:00,
2013-06-07 00:26:00,72.5,71.6,29.73,East,89,2.0,10.0,97,0.10,,,0.92,Wunderground v.1.15,2013-06-07 04:26:00,
2013-06-07 00:32:00,72.6,71.7,29.72,SE,139,2.0,10.0,97,0.32,,,0.96,Wunderground v.1.15,2013-06-07 04:32:00,
2013-06-07 00:38:00,72.6,71.7,29.72,SE,127,1.0,10.0,97,0.08,,,0.96,Wunderground v.1.15,2013-06-07 04:38:00,
2013-06-07 00:40:00,72.6,71.7,29.72,SSE,159,2.0,2.0,97,0.32,,,0.97,Wunderground v.1.15,2013-06-07 04:40:00,
2013-06-07 00:46:00,72.9,72.0,29.72,SSE,167,3.0,10.0,97,0.10,,,0.00,Wunderground v.1.15,2013-06-07 04:46:00,
2013-06-07 00:52:00,73.2,72.3,29.71,South,169,3.0,10.0,97,0.05,,,0.01,Wunderground v.1.15,2013-06-07 04:52:00,
2013-06-07 00:58:00,73.4,72.5,29.71,SSE,150,3.0,10.0,97,0.05,,,0.01,Wunderground v.1.15,2013-06-07 04:58:00,
2013-06-07 01:04:00,73.4,72.5,29.71,SSE,158,3.0,10.0,97,0.05,,,0.01,Wunderground v.1.15,2013-06-07 05:04:00,
2013-06-07 01:10:00,73.5,72.3,29.71,SSE,150,3.0,10.0,96,0.00,,,0.01,Wunderground v.1.15,2013-06-07 05:10:00,
2013-06-07 01:16:00,73.5,72.3,29.70,SSE,155,2.0,10.0,96,0.00,,,0.01,Wunderground v.1.15,2013-06-07 05:16:00,
2013-06-07 01:22:00,73.5,72.3,29.69,SE,143,0.0,10.0,96,0.00,,,0.01,Wunderground v.1.15,2013-06-07 05:22:00,
2013-06-07 01:28:00,73.5,72.3,29.69,SE,141,0.0,10.0,96,0.00,,,0.02,Wunderground v.1.15,2013-06-07 05:28:00,
2013-06-07 01:34:00,73.5,72.6,29.69,ESE,117,0.0,10.0,97,0.15,,,0.06,Wunderground v.1.15,2013-06-07 05:34:00,
2013-06-07 01:40:00,73.5,72.6,29.68,SSE,153,1.0,10.0,97,0.06,,,0.06,Wunderground v.1.15,2013-06-07 05:40:00,
2013-06-07 01:46:00,73.8,72.9,29.68,SSE,165,1.0,10.0,97,0.04,,,0.06,Wunderground v.1.15,2013-06-07 05:46:00,
2013-06-07 01:52:00,74.0,73.1,29.67,SE,131,2.0,4.0,97,0.00,,,0.06,Wunderground v.1.15,2013-06-07 05:52:00,
2013-06-07 01:58:00,74.4,73.5,29.67,SSW,200,2.0,10.0,97,0.00,,,0.06,Wunderground v.1.15,2013-06-07 05:58:00,
2013-06-07 02:04:00,74.8,73.6,29.67,SSE,152,4.0,10.0,96,0.00,,,0.06,Wunderground v.1.15,2013-06-07 06:04:00,
2013-06-07 02:10:00,75.1,73.9,29.67,SSE,158,4.0,10.0,96,0.00,,,0.06,Wunderground v.1.15,2013-06-07 06:10:00,
2013-06-07 02:16:00,75.2,74.0,29.66,SW,228,4.0,10.0,96,0.00,,,0.06,Wunderground v.1.15,2013-06-07 06:16:00,
2013-06-07 02:22:00,75.2,74.0,29.66,SW,223,4.0,5.0,96,0.00,,,0.06,Wunderground v.1.15,2013-06-07 06:22:00,
2013-06-07 02:28:00,75.3,74.1,29.65,SSE,162,3.0,10.0,96,0.00,,,0.06,Wunderground v.1.15,2013-06-07 06:28:00,
2013-06-07 02:34:00,75.4,74.2,29.65,SW,231,3.0,10.0,96,0.00,,,0.06,Wunderground v.1.15,2013-06-07 06:34:00,
2013-06-07 02:40:00,75.4,74.2,29.64,SW,227,3.0,10.0,96,0.00,,,0.07,Wunderground v.1.15,2013-06-07 06:40:00,
2013-06-07 02:46:00,75.4,74.2,29.64,SSW,194,4.0,10.0,96,0.52,,,0.23,Wunderground v.1.15,2013-06-07 06:46:00,
2013-06-07 02:52:00,75.3,74.1,29.65,SSE,162,3.0,10.0,96,0.39,,,0.34,Wunderground v.1.15,2013-06-07 06:52:00,
2013-06-07 02:58:00,75.1,73.9,29.65,SSE,155,5.0,10.0,96,0.14,,,0.35,Wunderground v.1.15,2013-06-07 06:58:00,
2013-06-07 03:04:00,74.8,73.3,29.65,SSE,158,7.0,10.0,95,0.10,,,0.36,Wunderground v.1.15,2013-06-07 07:04:00,
2013-06-07 03:10:00,74.3,72.8,29.65,SSE,150,6.0,6.0,95,0.07,,,0.36,Wunderground v.1.15,2013-06-07 07:10:00,
2013-06-07 03:16:00,74.2,73.0,29.65,South,171,5.0,10.0,96,0.04,,,0.36,Wunderground v.1.15,2013-06-07 07:16:00,
2013-06-07 03:22:00,74.0,72.8,29.64,SSE,154,4.0,10.0,96,0.00,,,0.36,Wunderground v.1.15,2013-06-07 07:22:00,
2013-06-07 03:28:00,73.9,72.7,29.64,SW,221,4.0,10.0,96,0.00,,,0.36,Wunderground v.1.15,2013-06-07 07:28:00,
2013-06-07 03:34:00,74.0,72.8,29.63,SSE,156,4.0,10.0,96,0.00,,,0.36,Wunderground v.1.15,2013-06-07 07:34:00,
2013-06-07 03:40:00,74.0,72.8,29.63,SSW,195,2.0,10.0,96,0.00,,,0.36,Wunderground v.1.15,2013-06-07 07:40:00,
2013-06-07 03:46:00,74.0,72.8,29.62,SSE,162,2.0,10.0,96,0.00,,,0.36,Wunderground v.1.15,2013-06-07 07:46:00,
2013-06-07 03:52:00,73.9,72.7,29.62,South,177,2.0,10.0,96,0.00,,,0.36,Wunderground v.1.15,2013-06-07 07:52:00,
2013-06-07 03:58:00,74.0,72.8,29.61,South,191,2.0,10.0,96,0.00,,,0.36,Wunderground v.1.15,2013-06-07 07:58:00,
2013-06-07 04:04:00,74.2,73.0,29.61,South,183,3.0,10.0,96,0.00,,,0.36,Wunderground v.1.15,2013-06-07 08:04:00,
2013-06-07 04:10:00,74.4,73.2,29.60,South,178,3.0,3.0,96,0.00,,,0.36,Wunderground v.1.15,2013-06-07 08:10:00,
2013-06-07 04:16:00,74.7,73.5,29.60,SSE,153,4.0,10.0,96,0.00,,,0.36,Wunderground v.1.15,2013-06-07 08:16:00,
2013-06-07 04:22:00,74.9,73.7,29.60,South,188,5.0,10.0,96,0.00,,,0.36,Wunderground v.1.15,2013-06-07 08:22:00,
2013-06-07 04:28:00,75.1,73.9,29.60,SE,139,4.0,10.0,96,0.00,,,0.36,Wunderground v.1.15,2013-06-07 08:28:00,
2013-06-07 04:34:00,75.2,74.0,29.60,SSE,165,4.0,10.0,96,0.00,,,0.36,Wunderground v.1.15,2013-06-07 08:34:00,
2013-06-07 04:40:00,75.3,74.1,29.59,South,178,4.0,4.0,96,0.00,,,0.36,Wunderground v.1.15,2013-06-07 08:40:00,
2013-06-07 04:46:00,75.3,74.1,29.59,SE,139,5.0,10.0,96,0.00,,,0.36,Wunderground v.1.15,2013-06-07 08:46:00,
2013-06-07 04:52:00,75.4,73.9,29.59,SE,134,5.0,10.0,95,0.00,,,0.36,Wunderground v.1.15,2013-06-07 08:52:00,
2013-06-07 04:58:00,75.4,73.9,29.59,SSW,205,5.0,11.0,95,0.00,,,0.36,Wunderground v.1.15,2013-06-07 08:58:00,
2013-06-07 05:04:00,75.5,73.7,29.59,South,174,5.0,10.0,94,0.00,,,0.36,Wunderground v.1.15,2013-06-07 09:04:00,
2013-06-07 05:10:00,75.4,73.6,29.59,WSW,239,4.0,4.0,94,0.00,,,0.36,Wunderground v.1.15,2013-06-07 09:10:00,
2013-06-07 05:16:00,75.3,73.8,29.59,SSE,157,3.0,10.0,95,0.00,,,0.37,Wunderground v.1.15,2013-06-07 09:16:00,
2013-06-07 05:22:00,75.2,73.7,29.59,SW,224,2.0,10.0,95,0.17,,,0.38,Wunderground v.1.15,2013-06-07 09:22:00,
2013-06-07 05:28:00,75.0,73.5,29.59,South,179,3.0,10.0,95,0.11,,,0.39,Wunderground v.1.15,2013-06-07 09:28:00,
2013-06-07 05:34:00,74.8,73.3,29.59,South,187,6.0,10.0,95,0.27,,,0.40,Wunderground v.1.15,2013-06-07 09:34:00,
2013-06-07 05:40:00,74.4,72.9,29.58,SSE,152,6.0,10.0,95,0.16,,,0.44,Wunderground v.1.15,2013-06-07 09:40:00,
2013-06-07 05:46:00,74.2,73.0,29.58,South,188,5.0,10.0,96,0.06,,,0.44,Wunderground v.1.15,2013-06-07 09:46:00,
2013-06-07 05:52:00,74.2,73.0,29.58,South,170,5.0,10.0,96,0.04,,,0.44,Wunderground v.1.15,2013-06-07 09:52:00,
2013-06-07 05:58:00,74.3,72.8,29.58,WNW,294,6.0,10.0,95,0.00,,,0.44,Wunderground v.1.15,2013-06-07 09:58:00,
2013-06-07 06:04:00,74.3,72.8,29.58,ESE,117,7.0,10.0,95,0.00,,,0.44,Wunderground v.1.15,2013-06-07 10:04:00,
2013-06-07 06:10:00,74.3,72.8,29.58,SSE,148,6.0,10.0,95,0.00,,,0.44,Wunderground v.1.15,2013-06-07 10:10:00,
2013-06-07 06:16:00,74.3,73.1,29.58,South,176,5.0,10.0,96,0.00,,,0.44,Wunderground v.1.15,2013-06-07 10:16:00,
2013-06-07 06:22:00,74.4,73.2,29.57,SSE,163,5.0,7.0,96,0.00,,,0.44,Wunderground v.1.15,2013-06-07 10:22:00,
2013-06-07 06:28:00,74.5,73.3,29.57,SW,219,5.0,10.0,96,1.17,,,0.47,Wunderground v.1.15,2013-06-07 10:28:00,
2013-06-07 06:34:00,74.5,73.3,29.57,SSW,199,5.0,11.0,96,0.18,,,0.50,Wunderground v.1.15,2013-06-07 10:34:00,
2013-06-07 06:40:00,74.5,73.0,29.57,SSE,167,5.0,10.0,95,0.06,,,0.50,Wunderground v.1.15,2013-06-07 10:40:00,
2013-06-07 06:46:00,74.6,73.1,29.56,SW,225,6.0,15.0,95,0.04,,,0.50,Wunderground v.1.15,2013-06-07 10:46:00,
2013-06-07 06:52:00,74.6,73.1,29.56,South,174,6.0,10.0,95,0.00,,,0.50,Wunderground v.1.15,2013-06-07 10:52:00,
2013-06-07 06:58:00,74.7,73.2,29.56,SSE,167,5.0,10.0,95,0.00,,,0.50,Wunderground v.1.15,2013-06-07 10:58:00,
2013-06-07 07:04:00,74.6,73.1,29.56,SW,217,5.0,10.0,95,0.00,,,0.50,Wunderground v.1.15,2013-06-07 11:04:00,
2013-06-07 07:10:00,74.7,72.9,29.56,SE,144,5.0,5.0,94,0.00,,,0.50,Wunderground v.1.15,2013-06-07 11:10:00,
2013-06-07 07:16:00,74.8,73.0,29.56,SW,226,6.0,10.0,94,0.00,,,0.50,Wunderground v.1.15,2013-06-07 11:16:00,
2013-06-07 07:22:00,75.1,72.9,29.55,South,172,8.0,14.0,93,0.00,,,0.50,Wunderground v.1.15,2013-06-07 11:22:00,
2013-06-07 07:28:00,75.2,73.0,29.55,SSE,152,8.0,14.0,93,0.00,,,0.50,Wunderground v.1.15,2013-06-07 11:28:00,
2013-06-07 07:34:00,75.4,73.2,29.55,SW,228,8.0,10.0,93,0.00,,,0.50,Wunderground v.1.15,2013-06-07 11:34:00,
2013-06-07 07:40:00,75.3,73.1,29.55,South,169,8.0,8.0,93,0.00,,,0.50,Wunderground v.1.15,2013-06-07 11:40:00,
2013-06-07 07:46:00,75.3,73.5,29.55,SSW,200,6.0,10.0,94,0.00,,,0.50,Wunderground v.1.15,2013-06-07 11:46:00,
2013-06-07 07:52:00,75.2,73.4,29.55,SSW,203,6.0,6.0,94,0.00,,,0.50,Wunderground v.1.15,2013-06-07 11:52:00,
2013-06-07 07:58:00,75.2,73.0,29.54,SSW,198,6.0,10.0,93,0.00,,,0.50,Wunderground v.1.15,2013-06-07 11:58:00,
2013-06-07 08:04:00,75.2,73.0,29.54,SSW,210,7.0,16.0,93,0.00,,,0.50,Wunderground v.1.15,2013-06-07 12:04:00,
2013-06-07 08:10:00,75.4,73.2,29.54,South,170,7.0,10.0,93,0.00,,,0.50,Wunderground v.1.15,2013-06-07 12:10:00,
2013-06-07 08:16:00,75.2,73.4,29.55,South,179,6.0,10.0,94,0.00,,,0.50,Wunderground v.1.15,2013-06-07 12:16:00,
2013-06-07 08:22:00,75.0,73.2,29.55,SSW,210,5.0,10.0,94,0.00,,,0.51,Wunderground v.1.15,2013-06-07 12:22:00,
2013-06-07 08:28:00,75.0,73.2,29.55,SW,221,5.0,10.0,94,0.00,,,0.51,Wunderground v.1.15,2013-06-07 12:28:00,
2013-06-07 08:34:00,75.3,73.1,29.55,SE,140,5.0,10.0,93,0.00,,,0.51,Wunderground v.1.15,2013-06-07 12:34:00,
2013-06-07 08:40:00,75.5,73.3,29.55,SSE,152,6.0,6.0,93,0.00,,,0.51,Wunderground v.1.15,2013-06-07 12:40:00,
2013-06-07 08:46:00,75.8,73.3,29.55,SW,217,5.0,10.0,92,0.00,,,0.51,Wunderground v.1.15,2013-06-07 12:46:00,
2013-06-07 08:52:00,75.6,73.4,29.55,SSE,162,6.0,10.0,93,0.00,,,0.51,Wunderground v.1.15,2013-06-07 12:52:00,
2013-06-07 08:58:00,75.6,73.4,29.55,NE,39,5.0,10.0,93,0.00,,,0.51,Wunderground v.1.15,2013-06-07 12:58:00,
2013-06-07 09:04:00,75.6,73.4,29.55,SSE,147,6.0,11.0,93,0.00,,,0.51,Wunderground v.1.15,2013-06-07 13:04:00,
2013-06-07 09:10:00,75.9,73.7,29.55,SSW,209,6.0,10.0,93,0.00,,,0.51,Wunderground v.1.15,2013-06-07 13:10:00,
2013-06-07 09:16:00,76.7,73.9,29.55,WSW,248,6.0,10.0,91,0.00,,,0.51,Wunderground v.1.15,2013-06-07 13:16:00,
2013-06-07 09:22:00,76.5,73.7,29.55,WSW,238,4.0,10.0,91,0.00,,,0.51,Wunderground v.1.15,2013-06-07 13:22:00,
2013-06-07 09:28:00,76.0,73.5,29.55,SE,138,4.0,10.0,92,0.00,,,0.51,Wunderground v.1.15,2013-06-07 13:28:00,
2013-06-07 09:34:00,75.9,73.7,29.55,South,182,4.0,10.0,93,0.00,,,0.51,Wunderground v.1.15,2013-06-07 13:34:00,
2013-06-07 09:40:00,76.2,73.7,29.55,SSW,196,5.0,10.0,92,0.00,,,0.51,Wunderground v.1.15,2013-06-07 13:40:00,
2013-06-07 09:46:00,77.2,74.0,29.55,ENE,66,6.0,10.0,90,0.00,,,0.51,Wunderground v.1.15,2013-06-07 13:46:00,
2013-06-07 09:52:00,77.7,73.9,29.55,South,173,6.0,7.0,88,0.00,,,0.51,Wunderground v.1.15,2013-06-07 13:52:00,
2013-06-07 09:58:00,78.3,74.1,29.55,South,169,5.0,10.0,87,0.00,,,0.51,Wunderground v.1.15,2013-06-07 13:58:00,
2013-06-07 10:04:00,78.3,73.4,29.55,WSW,240,4.0,10.0,85,0.00,,,0.51,Wunderground v.1.15,2013-06-07 14:04:00,
2013-06-07 10:10:00,78.1,73.6,29.54,South,174,6.0,10.0,86,0.00,,,0.51,Wunderground v.1.15,2013-06-07 14:10:00,
2013-06-07 10:16:00,77.9,73.0,29.55,SW,221,7.0,10.0,85,0.00,,,0.51,Wunderground v.1.15,2013-06-07 14:16:00,
2013-06-07 10:22:00,77.6,73.1,29.55,South,190,6.0,10.0,86,0.00,,,0.51,Wunderground v.1.15,2013-06-07 14:22:00,
2013-06-07 10:28:00,77.3,73.1,29.55,SW,232,6.0,11.0,87,0.00,,,0.51,Wunderground v.1.15,2013-06-07 14:28:00,
2013-06-07 10:34:00,77.1,73.3,29.55,ENE,74,5.0,10.0,88,0.00,,,0.51,Wunderground v.1.15,2013-06-07 14:34:00,
2013-06-07 10:40:00,77.1,73.6,29.56,South,188,4.0,10.0,89,0.00,,,0.51,Wunderground v.1.15,2013-06-07 14:40:00,
2013-06-07 10:46:00,77.0,73.5,29.56,SW,227,4.0,10.0,89,0.00,,,0.51,Wunderground v.1.15,2013-06-07 14:46:00,
2013-06-07 10:52:00,76.9,73.4,29.56,SW,223,4.0,10.0,89,0.00,,,0.51,Wunderground v.1.15,2013-06-07 14:52:00,
2013-06-07 10:58:00,76.5,73.3,29.57,WSW,252,3.0,10.0,90,0.00,,,0.51,Wunderground v.1.15,2013-06-07 14:58:00,
2013-06-07 11:04:00,76.1,73.3,29.57,NNW,330,2.0,10.0,91,0.00,,,0.51,Wunderground v.1.15,2013-06-07 15:04:00,
2013-06-07 11:10:00,75.9,73.4,29.58,SW,221,2.0,2.0,92,0.00,,,0.51,Wunderground v.1.15,2013-06-07 15:10:00,
2013-06-07 11:16:00,75.9,73.4,29.58,SSE,167,2.0,10.0,92,0.00,,,0.52,Wunderground v.1.15,2013-06-07 15:16:00,
2013-06-07 11:22:00,75.7,73.5,29.58,SW,214,2.0,10.0,93,0.00,,,0.52,Wunderground v.1.15,2013-06-07 15:22:00,
2013-06-07 11:28:00,75.7,73.5,29.59,West,278,2.0,10.0,93,0.00,,,0.52,Wunderground v.1.15,2013-06-07 15:28:00,
2013-06-07 11:34:00,75.6,73.4,29.59,WSW,244,2.0,10.0,93,0.00,,,0.52,Wunderground v.1.15,2013-06-07 15:34:00,
2013-06-07 11:40:00,75.5,73.3,29.60,ESE,107,2.0,10.0,93,0.00,,,0.52,Wunderground v.1.15,2013-06-07 15:40:00,
2013-06-07 11:46:00,75.5,73.7,29.61,NNW,341,2.0,10.0,94,0.11,,,0.54,Wunderground v.1.15,2013-06-07 15:46:00,
2013-06-07 11:52:00,75.2,73.0,29.61,NNW,334,2.0,10.0,93,0.11,,,0.55,Wunderground v.1.15,2013-06-07 15:52:00,
2013-06-07 11:58:00,75.1,73.3,29.61,ESE,118,2.0,10.0,94,0.23,,,0.57,Wunderground v.1.15,2013-06-07 15:58:00,
2013-06-07 12:04:00,75.0,73.5,29.62,North,352,1.0,10.0,95,0.24,,,0.59,Wunderground v.1.15,2013-06-07 16:04:00,
2013-06-07 12:10:00,74.9,73.4,29.62,SSW,203,1.0,10.0,95,0.42,,,0.62,Wunderground v.1.15,2013-06-07 16:10:00,
2013-06-07 12:16:00,74.9,73.4,29.63,NNE,13,1.0,10.0,95,0.14,,,0.63,Wunderground v.1.15,2013-06-07 16:16:00,
2013-06-07 12:22:00,75.1,73.6,29.63,ESE,110,1.0,10.0,95,0.06,,,0.63,Wunderground v.1.15,2013-06-07 16:22:00,
2013-06-07 12:28:00,75.7,74.2,29.63,NNE,23,1.0,10.0,95,0.04,,,0.63,Wunderground v.1.15,2013-06-07 16:28:00,
2013-06-07 12:34:00,76.0,74.1,29.63,NW,326,2.0,10.0,94,0.00,,,0.63,Wunderground v.1.15,2013-06-07 16:34:00,
2013-06-07 12:40:00,75.7,73.8,29.63,NE,56,1.0,10.0,94,0.00,,,0.63,Wunderground v.1.15,2013-06-07 16:40:00,
2013-06-07 12:46:00,75.7,73.8,29.64,SSE,158,2.0,10.0,94,0.00,,,0.63,Wunderground v.1.15,2013-06-07 16:46:00,
2013-06-07 12:52:00,76.1,73.9,29.64,NNW,334,2.0,10.0,93,0.00,,,0.63,Wunderground v.1.15,2013-06-07 16:52:00,
2013-06-07 12:58:00,76.2,74.3,29.64,NNE,26,3.0,10.0,94,0.00,,,0.63,Wunderground v.1.15,2013-06-07 16:58:00,
2013-06-07 13:04:00,76.4,74.2,29.65,NW,304,2.0,10.0,93,0.00,,,0.63,Wunderground v.1.15,2013-06-07 17:04:00,
2013-06-07 13:10:00,77.3,74.8,29.65,NE,34,2.0,10.0,92,0.00,,,0.63,Wunderground v.1.15,2013-06-07 17:10:00,
2013-06-07 13:16:00,78.1,75.9,29.65,NNW,340,3.0,10.0,93,0.00,,,0.63,Wunderground v.1.15,2013-06-07 17:16:00,
2013-06-07 13:22:00,77.7,74.2,29.65,WNW,295,3.0,10.0,89,0.00,,,0.63,Wunderground v.1.15,2013-06-07 17:22:00,
2013-06-07 13:28:00,77.2,73.7,29.65,NW,313,3.0,10.0,89,0.00,,,0.63,Wunderground v.1.15,2013-06-07 17:28:00,
2013-06-07 13:34:00,77.7,74.5,29.66,SSW,207,3.0,10.0,90,0.00,,,0.63,Wunderground v.1.15,2013-06-07 17:34:00,
2013-06-07 13:40:00,77.3,73.5,29.66,SW,214,3.0,10.0,88,0.00,,,0.63,Wunderground v.1.15,2013-06-07 17:40:00,
2013-06-07 13:46:00,76.6,73.1,29.67,WNW,300,3.0,10.0,89,0.00,,,0.63,Wunderground v.1.15,2013-06-07 17:46:00,
2013-06-07 13:52:00,76.3,73.5,29.67,NW,309,4.0,10.0,91,0.00,,,0.64,Wunderground v.1.15,2013-06-07 17:52:00,
2013-06-07 14:00:00,76.0,72.9,29.68,North,3,3.0,3.0,90,0.00,,,0.64,Wunderground v.1.15,2013-06-07 18:00:00,
2013-06-07 14:06:00,75.7,72.9,29.68,SW,227,3.0,10.0,91,0.00,,,0.64,Wunderground v.1.15,2013-06-07 18:06:00,
2013-06-07 14:12:00,76.1,72.6,29.69,NW,317,3.0,10.0,89,0.00,,,0.64,Wunderground v.1.15,2013-06-07 18:12:00,
2013-06-07 14:18:00,76.5,73.0,29.69,NW,317,2.0,10.0,89,0.00,,,0.64,Wunderground v.1.15,2013-06-07 18:18:00,
2013-06-07 14:24:00,77.0,73.2,29.69,ENE,64,2.0,10.0,88,0.00,,,0.64,Wunderground v.1.15,2013-06-07 18:24:00,
2013-06-07 14:30:00,77.0,73.2,29.70,WNW,290,3.0,3.0,88,0.00,,,0.64,Wunderground v.1.15,2013-06-07 18:30:00,
2013-06-07 14:38:00,77.3,72.8,29.70,NW,304,3.0,10.0,86,0.00,,,0.64,Wunderground v.1.15,2013-06-07 18:38:00,
2013-06-07 14:44:00,77.9,73.7,29.71,NE,53,4.0,10.0,87,0.00,,,0.64,Wunderground v.1.15,2013-06-07 18:44:00,
2013-06-07 14:50:00,78.8,73.6,29.71,NNW,331,3.0,10.0,84,0.00,,,0.64,Wunderground v.1.15,2013-06-07 18:50:00,
2013-06-07 14:56:00,79.9,74.3,29.71,NE,53,3.0,10.0,83,0.00,,,0.64,Wunderground v.1.15,2013-06-07 18:56:00,
2013-06-07 15:02:00,79.8,74.2,29.72,WSW,258,3.0,10.0,83,0.00,,,0.64,Wunderground v.1.15,2013-06-07 19:02:00,
2013-06-07 15:08:00,79.9,74.3,29.72,East,84,3.0,10.0,83,0.00,,,0.64,Wunderground v.1.15,2013-06-07 19:08:00,
2013-06-07 15:14:00,80.7,73.6,29.72,NW,309,3.0,10.0,79,0.00,,,0.64,Wunderground v.1.15,2013-06-07 19:14:00,
2013-06-07 15:20:00,80.5,72.6,29.72,SSE,166,4.0,4.0,77,0.00,,,0.64,Wunderground v.1.15,2013-06-07 19:20:00,
2013-06-07 15:26:00,80.3,73.2,29.73,SSE,164,5.0,10.0,79,0.00,,,0.64,Wunderground v.1.15,2013-06-07 19:26:00,
2013-06-07 15:32:00,80.2,73.1,29.73,West,261,3.0,10.0,79,0.00,,,0.64,Wunderground v.1.15,2013-06-07 19:32:00,
2013-06-07 15:38:00,79.6,73.3,29.73,WNW,297,2.0,10.0,81,0.00,,,0.64,Wunderground v.1.15,2013-06-07 19:38:00,
2013-06-07 15:44:00,79.6,73.6,29.73,North,359,2.0,10.0,82,0.00,,,0.64,Wunderground v.1.15,2013-06-07 19:44:00,
2013-06-07 15:50:00,80.1,73.7,29.73,North,6,2.0,10.0,81,0.00,,,0.64,Wunderground v.1.15,2013-06-07 19:50:00,
2013-06-07 15:56:00,80.8,72.9,29.73,SE,129,2.0,10.0,77,0.00,,,0.64,Wunderground v.1.15,2013-06-07 19:56:00,
2013-06-07 16:02:00,81.0,73.1,29.74,SSE,150,3.0,10.0,77,0.00,,,0.64,Wunderground v.1.15,2013-06-07 20:02:00,
2013-06-07 16:08:00,81.1,73.2,29.74,NW,324,2.0,10.0,77,0.00,,,0.64,Wunderground v.1.15,2013-06-07 20:08:00,
2013-06-07 16:14:00,80.9,72.6,29.74,NW,316,2.0,10.0,76,0.00,,,0.64,Wunderground v.1.15,2013-06-07 20:14:00,
2013-06-07 16:20:00,80.8,72.5,29.74,WNW,295,3.0,3.0,76,0.00,,,0.64,Wunderground v.1.15,2013-06-07 20:20:00,
2013-06-07 16:26:00,81.4,73.5,29.74,NNW,329,2.0,10.0,77,0.00,,,0.64,Wunderground v.1.15,2013-06-07 20:26:00,
2013-06-07 16:32:00,81.6,72.9,29.75,West,278,2.0,10.0,75,0.00,,,0.64,Wunderground v.1.15,2013-06-07 20:32:00,
2013-06-07 16:38:00,80.5,71.8,29.75,North,10,3.0,10.0,75,0.00,,,0.64,Wunderground v.1.15,2013-06-07 20:38:00,
2013-06-07 16:44:00,80.9,73.4,29.75,NNW,330,2.0,10.0,78,0.00,,,0.64,Wunderground v.1.15,2013-06-07 20:44:00,
2013-06-07 16:54:00,82.4,74.1,29.74,NNE,30,1.0,10.0,76,0.00,,,0.64,Wunderground v.1.15,2013-06-07 20:54:00,
2013-06-07 17:00:00,82.8,73.7,29.75,North,351,1.0,2.0,74,0.00,,,0.64,Wunderground v.1.15,2013-06-07 21:00:00,
2013-06-07 17:06:00,83.1,73.5,29.75,SE,135,1.0,10.0,73,0.00,,,0.64,Wunderground v.1.15,2013-06-07 21:06:00,
2013-06-07 17:12:00,82.6,73.5,29.75,WNW,288,0.0,10.0,74,0.00,,,0.64,Wunderground v.1.15,2013-06-07 21:12:00,
2013-06-07 17:18:00,83.2,74.0,29.75,NNW,342,1.0,10.0,74,0.00,,,0.64,Wunderground v.1.15,2013-06-07 21:18:00,
2013-06-07 17:28:00,83.4,73.4,29.75,SW,225,1.0,10.0,72,0.00,,,0.64,Wunderground v.1.15,2013-06-07 21:28:00,
2013-06-07 17:34:00,84.3,75.1,29.75,West,269,1.0,10.0,74,0.00,,,0.64,Wunderground v.1.15,2013-06-07 21:34:00,
2013-06-07 17:40:00,84.0,73.6,29.75,NW,324,1.0,1.0,71,0.00,,,0.64,Wunderground v.1.15,2013-06-07 21:40:00,
2013-06-07 17:46:00,84.0,73.6,29.76,NNW,333,1.0,10.0,71,0.00,,,0.64,Wunderground v.1.15,2013-06-07 21:46:00,
2013-06-07 17:52:00,84.1,74.1,29.76,SSE,151,1.0,10.0,72,0.00,,,0.64,Wunderground v.1.15,2013-06-07 21:52:00,
2013-06-07 17:58:00,84.4,74.4,29.76,NW,314,1.0,10.0,72,0.00,,,0.64,Wunderground v.1.15,2013-06-07 21:58:00,
2013-06-07 18:04:00,84.2,73.3,29.76,NW,304,1.0,10.0,70,0.00,,,0.64,Wunderground v.1.15,2013-06-07 22:04:00,
2013-06-07 18:10:00,84.4,74.4,29.76,SSE,155,1.0,10.0,72,0.00,,,0.64,Wunderground v.1.15,2013-06-07 22:10:00,
2013-06-07 18:16:00,84.4,74.4,29.76,South,190,1.0,10.0,72,0.00,,,0.64,Wunderground v.1.15,2013-06-07 22:16:00,
2013-06-07 18:22:00,84.3,74.3,29.76,North,356,1.0,10.0,72,0.00,,,0.64,Wunderground v.1.15,2013-06-07 22:22:00,
2013-06-07 18:28:00,84.3,74.3,29.76,ENE,61,1.0,10.0,72,0.00,,,0.64,Wunderground v.1.15,2013-06-07 22:28:00,
2013-06-07 18:34:00,84.4,74.4,29.76,NW,309,1.0,10.0,72,0.00,,,0.64,Wunderground v.1.15,2013-06-07 22:34:00,
2013-06-07 18:40:00,84.5,74.1,29.76,NNW,335,0.0,10.0,71,0.00,,,0.64,Wunderground v.1.15,2013-06-07 22:40:00,
2013-06-07 18:46:00,84.2,74.2,29.76,SE,133,1.0,10.0,72,0.00,,,0.64,Wunderground v.1.15,2013-06-07 22:46:00,
2013-06-07 18:52:00,83.9,74.3,29.76,ENE,70,1.0,10.0,73,0.00,,,0.64,Wunderground v.1.15,2013-06-07 22:52:00,
2013-06-07 18:58:00,83.6,74.4,29.76,SE,146,0.0,10.0,74,0.00,,,0.64,Wunderground v.1.15,2013-06-07 22:58:00,
2013-06-07 19:06:00,83.7,74.5,29.76,SSE,164,0.0,10.0,74,0.00,,,0.64,Wunderground v.1.15,2013-06-07 23:06:00,
2013-06-07 19:12:00,83.6,74.8,29.76,South,176,0.0,10.0,75,0.00,,,0.64,Wunderground v.1.15,2013-06-07 23:12:00,
2013-06-07 19:18:00,83.1,73.9,29.76,SSW,212,1.0,10.0,74,0.00,,,0.64,Wunderground v.1.15,2013-06-07 23:18:00,
2013-06-07 19:24:00,82.6,74.3,29.77,SSE,160,1.0,10.0,76,0.00,,,0.64,Wunderground v.1.15,2013-06-07 23:24:00,
2013-06-07 19:30:00,82.0,74.5,29.77,SSE,163,1.0,1.0,78,0.00,,,0.64,Wunderground v.1.15,2013-06-07 23:30:00,
2013-06-07 19:36:00,81.0,74.2,29.77,SSE,166,0.0,10.0,80,0.00,,,0.64,Wunderground v.1.15,2013-06-07 23:36:00,
2013-06-07 19:42:00,80.2,74.6,29.77,SSE,155,0.0,10.0,83,0.00,,,0.64,Wunderground v.1.15,2013-06-07 23:42:00,
2013-06-07 19:48:00,79.3,74.7,29.77,SE,146,1.0,10.0,86,0.00,,,0.64,Wunderground v.1.15,2013-06-07 23:48:00,
2013-06-07 19:54:00,78.6,74.4,29.78,SSE,151,1.0,10.0,87,0.00,,,0.64,Wunderground v.1.15,2013-06-07 23:54:00,
2013-06-07 20:00:00,78.2,74.4,29.78,SSE,150,1.0,10.0,88,0.00,,,0.64,Wunderground v.1.15,2013-06-08 00:00:00,
2013-06-07 20:06:00,78.0,74.2,29.78,South,181,1.0,10.0,88,0.00,,,0.64,Wunderground v.1.15,2013-06-08 00:06:00,
2013-06-07 20:12:00,77.9,74.4,29.79,SSE,159,2.0,10.0,89,0.00,,,0.64,Wunderground v.1.15,2013-06-08 00:12:00,
2013-06-07 20:18:00,77.7,74.2,29.79,South,171,2.0,10.0,89,0.00,,,0.64,Wunderground v.1.15,2013-06-08 00:18:00,
2013-06-07 20:24:00,77.6,74.4,29.80,SE,145,1.0,10.0,90,0.00,,,0.64,Wunderground v.1.15,2013-06-08 00:24:00,
2013-06-07 20:30:00,77.4,74.2,29.80,SSW,193,1.0,10.0,90,0.00,,,0.64,Wunderground v.1.15,2013-06-08 00:30:00,
2013-06-07 20:36:00,77.1,73.9,29.80,SSE,154,1.0,10.0,90,0.00,,,0.64,Wunderground v.1.15,2013-06-08 00:36:00,
2013-06-07 20:42:00,76.9,74.1,29.81,SE,145,1.0,10.0,91,0.00,,,0.64,Wunderground v.1.15,2013-06-08 00:42:00,
2013-06-07 20:48:00,76.8,74.0,29.81,SE,142,1.0,10.0,91,0.00,,,0.64,Wunderground v.1.15,2013-06-08 00:48:00,
2013-06-07 20:54:00,76.7,73.9,29.81,SSE,149,1.0,10.0,91,0.00,,,0.64,Wunderground v.1.15,2013-06-08 00:54:00,
2013-06-07 21:00:00,76.6,73.8,29.82,SE,135,2.0,2.0,91,0.00,,,0.64,Wunderground v.1.15,2013-06-08 01:00:00,
2013-06-07 21:06:00,76.5,74.0,29.82,SW,224,1.0,10.0,92,0.00,,,0.64,Wunderground v.1.15,2013-06-08 01:06:00,
2013-06-07 21:12:00,76.4,73.9,29.82,SE,129,1.0,10.0,92,0.00,,,0.64,Wunderground v.1.15,2013-06-08 01:12:00,
2013-06-07 21:18:00,76.4,73.9,29.82,SSE,165,1.0,10.0,92,0.00,,,0.64,Wunderground v.1.15,2013-06-08 01:18:00,
2013-06-07 21:24:00,76.3,73.8,29.82,SSE,167,1.0,10.0,92,0.00,,,0.64,Wunderground v.1.15,2013-06-08 01:24:00,
2013-06-07 21:30:00,76.2,73.7,29.83,ESE,102,1.0,10.0,92,0.00,,,0.64,Wunderground v.1.15,2013-06-08 01:30:00,
2013-06-07 21:36:00,76.1,73.6,29.83,SSW,199,1.0,10.0,92,0.00,,,0.64,Wunderground v.1.15,2013-06-08 01:36:00,
2013-06-07 21:42:00,76.0,73.5,29.84,SE,142,1.0,10.0,92,0.00,,,0.64,Wunderground v.1.15,2013-06-08 01:42:00,
2013-06-07 21:48:00,75.9,73.4,29.84,South,176,1.0,10.0,92,0.00,,,0.64,Wunderground v.1.15,2013-06-08 01:48:00,
2013-06-07 21:54:00,75.9,73.4,29.84,South,185,1.0,10.0,92,0.00,,,0.64,Wunderground v.1.15,2013-06-08 01:54:00,
2013-06-07 22:00:00,75.8,73.3,29.84,South,174,1.0,10.0,92,0.00,,,0.64,Wunderground v.1.15,2013-06-08 02:00:00,
2013-06-07 22:06:00,75.8,73.3,29.85,SSW,210,1.0,10.0,92,0.00,,,0.64,Wunderground v.1.15,2013-06-08 02:06:00,
2013-06-07 22:12:00,75.8,73.3,29.85,SSE,160,1.0,10.0,92,0.00,,,0.64,Wunderground v.1.15,2013-06-08 02:12:00,
2013-06-07 22:18:00,75.7,73.2,29.85,SSW,198,1.0,10.0,92,0.00,,,0.64,Wunderground v.1.15,2013-06-08 02:18:00,
2013-06-07 22:24:00,75.6,73.1,29.86,SSE,155,1.0,10.0,92,0.00,,,0.64,Wunderground v.1.15,2013-06-08 02:24:00,
2013-06-07 22:30:00,75.5,73.0,29.85,South,190,1.0,10.0,92,0.00,,,0.64,Wunderground v.1.15,2013-06-08 02:30:00,
2013-06-07 22:38:00,75.5,73.0,29.86,SSE,147,2.0,10.0,92,0.00,,,0.64,Wunderground v.1.15,2013-06-08 02:38:00,
2013-06-07 22:44:00,75.5,73.0,29.86,SSW,202,2.0,10.0,92,0.00,,,0.64,Wunderground v.1.15,2013-06-08 02:44:00,
2013-06-07 22:50:00,75.5,73.0,29.86,SSW,199,2.0,2.0,92,0.00,,,0.64,Wunderground v.1.15,2013-06-08 02:50:00,
2013-06-07 22:56:00,75.4,73.2,29.86,SSE,164,1.0,10.0,93,0.00,,,0.64,Wunderground v.1.15,2013-06-08 02:56:00,
2013-06-07 23:02:00,75.3,73.1,29.86,SSE,155,0.0,10.0,93,0.00,,,0.64,Wunderground v.1.15,2013-06-08 03:02:00,
2013-06-07 23:08:00,75.4,73.2,29.86,SSW,203,1.0,10.0,93,0.00,,,0.64,Wunderground v.1.15,2013-06-08 03:08:00,
2013-06-07 23:14:00,75.3,73.1,29.86,South,190,0.0,10.0,93,0.00,,,0.64,Wunderground v.1.15,2013-06-08 03:14:00,
2013-06-07 23:20:00,75.2,73.0,29.86,SE,140,0.0,10.0,93,0.00,,,0.64,Wunderground v.1.15,2013-06-08 03:20:00,
2013-06-07 23:26:00,75.2,73.0,29.86,SW,225,1.0,10.0,93,0.00,,,0.64,Wunderground v.1.15,2013-06-08 03:26:00,
2013-06-07 23:32:00,75.2,73.0,29.86,South,169,1.0,10.0,93,0.00,,,0.64,Wunderground v.1.15,2013-06-08 03:32:00,
2013-06-07 23:38:00,75.2,73.0,29.86,SW,223,1.0,10.0,93,0.00,,,0.64,Wunderground v.1.15,2013-06-08 03:38:00,
2013-06-07 23:44:00,75.2,73.0,29.86,SE,137,1.0,10.0,93,0.00,,,0.64,Wunderground v.1.15,2013-06-08 03:44:00,
2013-06-07 23:50:00,75.2,73.0,29.86,SSE,160,0.0,10.0,93,0.00,,,0.64,Wunderground v.1.15,2013-06-08 03:50:00,
2013-06-07 23:56:00,75.1,72.9,29.86,SSE,159,1.0,10.0,93,0.00,,,0.64,Wunderground v.1.15,2013-06-08 03:56:00,